Pahoa, Hawaii
Current Conditions -  °F | °C
As of 1:53 AM on Monday 24 Nov 2014 (Local Time) from PHTO Reporting Station
Clear Clear  
Wind Chill: 65°   Ceiling: Unl
Heat Index: 65°   Visibility: 10mi
Dew Point: 62°   Wind: 0mph
Humidity: 90%   Direction: NA
Pressure: 29.89"   Gusts: NA
Location:  19.49°N, 154.94°W
Report Text: PHTO 241153Z 00000KT 10SM CLR 18/17 A2989 RMK AO2 SLP121 T01830167 10217 20178 58014 $
Loading
Personal Weather Stations






























Interactive Weather Map New forecast layout! Learn more

10-Day Weather Forecast

Advertisements
Track Severe Weather on mobile